Share

Swanson Ranch 3, NV

2:08 AM PDT on April 24, 2014 (GMT -0700)
Eureka (KP68) Elev 5945 ft | 39.60 °N, 116.01 °W | Change Station
Active Advisory: Winter Storm Watch

Current weather conditions updated 15 minutes ago

Partly Cloudy
Partly Cloudy
31 °F
Feels Like 26 °F
N
5
Wind Variable Wind from South
Gusts 10 mph
Sunrise 5:58 AM
Sunset 7:37 PM
Moon Waning Crescent

Today is forecast to be Much Warmer than yesterday.

Pressure 29.99 in
Visibility -9999.0 miles
Clouds
Windchill 26 °F
Dew Point 19 °F
Humidity 61%
Rainfall 0.00 in
Snow Depth Not available.
UV Not available.
Pollen 9.10 out of 12
Air Quality Not available.
Flu Activity Sporadic
METAR KP68 240853Z AUTO 18004KT M01/M07 A3005 RMK AO1 SLP154 T10061072 58006

More Conditions Fewer Conditions

Pressure 29.99 in
Visibility -9999.0 miles
Clouds
Windchill 26 °F
Dew Point 19 °F
Humidity 61%
Rainfall 0.00 in
Snow Depth Not available.
UV Not available.
Pollen 9.10 out of 12
Air Quality Not available.
Flu Activity Sporadic
METAR KP68 240853Z AUTO 18004KT M01/M07 A3005 RMK AO1 SLP154 T10061072 58006

More Conditions Fewer Conditions

10-Day Weather Forecast

Almanac

Astronomy

Apr. 24, 2014 Rise Set
Actual Time 5:58 AM PDT 7:37 PM PDT
Civil Twilight 5:29 AM PDT 8:06 PM PDT
Nautical Twilight 4:55 AM PDT 8:40 PM PDT
Astronomical Twilight 4:18 AM PDT 9:18 PM PDT
Moon 3:12 AM PDT 2:58 PM PDT
Length of Visible Light 14h 36m
Length of Day
13h 38m
Tomorrow will be 2m 22s longer.
Waning Crescent, 27% of the Moon is Illuminated
Today
Waning Crescent
Apr 29
New
May 6
First Quarter
May 14
Full
May 21
Last Quarter

Today's Extremes

State Highs State Lows

Community

  • Stacked
    Stacked
  • clouds approaching Red Sox Nation
    clouds approaching Red Sox Nation
  • Balance
    Balance
  • Nestled In
    Nestled In
  • Stunning Sunrise
    Stunning Sunrise

WunderPhotos

Upload Photos

1,704,575 photos uploaded!

WunderBlogs® & News

Nearby

Snow Depth

Station Depth Elevation
Lewis Peak 1 in 7400 ft
Big Creek Summit 30 in 8700 ft
Diamond Peak 1 in 8000 ft
Corral Canyon 42 in 8500 ft
Green Mountain 12 in 8000 ft

Coastal Water Temperatures

Place Temperature
No Stations Reporting

Earthquake Activity

City Distance Mag. Time & Date
Currant, Nevada 118 miles 3.3 2:41 AM PDT
2014-04-18
Currant, Nevada 128 miles 2.8 4:04 PM PDT
2014-04-17
Carlin, Nevada 79 miles 2.5 10:07 AM PDT
2014-04-17
Minimum magnitude displayed is 2.5.

Nearby Weather Stations

There are no personal weather stations in this area.

What do you think?

We're not finished. Please let us know what you like, what you don't like, and what you are still missing.